sensor_id;sensor_type;location;lat;lon;timestamp;pressure;altitude;pressure_sealevel;temperature;humidity
73558;BME280;61829;53.286;10.434;2023-10-13T00:01:57;100932.34;;;13.91;97.51
73558;BME280;61829;53.286;10.434;2023-10-13T00:04:28;100933.81;;;13.94;97.38
73558;BME280;61829;53.286;10.434;2023-10-13T00:06:55;100934.47;;;13.96;97.43
73558;BME280;61829;53.286;10.434;2023-10-13T00:09:26;100937.59;;;14.00;97.43
73558;BME280;61829;53.286;10.434;2023-10-13T00:12:01;100937.41;;;14.01;97.49
73558;BME280;61829;53.286;10.434;2023-10-13T00:14:27;100932.16;;;14.00;97.59
73558;BME280;61829;53.286;10.434;2023-10-13T00:17:03;100928.41;;;14.01;97.82
73558;BME280;61829;53.286;10.434;2023-10-13T00:19:35;100929.88;;;14.03;97.81
73558;BME280;61829;53.286;10.434;2023-10-13T00:22:15;100936.13;;;14.04;97.73
73558;BME280;61829;53.286;10.434;2023-10-13T00:24:43;100926.97;;;14.05;97.87
73558;BME280;61829;53.286;10.434;2023-10-13T00:27:11;100919.69;;;14.05;97.73
73558;BME280;61829;53.286;10.434;2023-10-13T00:29:58;100917.78;;;14.06;97.94
73558;BME280;61829;53.286;10.434;2023-10-13T00:32:43;100913.19;;;14.06;97.88
73558;BME280;61829;53.286;10.434;2023-10-13T00:35:11;100919.06;;;14.10;97.73
73558;BME280;61829;53.286;10.434;2023-10-13T00:37:54;100920.31;;;14.14;97.90
73558;BME280;61829;53.286;10.434;2023-10-13T00:40:21;100914.06;;;14.13;98.03
73558;BME280;61829;53.286;10.434;2023-10-13T00:43:11;100911.13;;;14.15;97.94
73558;BME280;61829;53.286;10.434;2023-10-13T00:45:46;100907.41;;;14.16;97.91
73558;BME280;61829;53.286;10.434;2023-10-13T00:48:40;100908.41;;;14.15;98.18
73558;BME280;61829;53.286;10.434;2023-10-13T00:51:12;100896.75;;;14.14;98.40
73558;BME280;61829;53.286;10.434;2023-10-13T00:53:58;100899.03;;;14.18;98.42
73558;BME280;61829;53.286;10.434;2023-10-13T00:56:26;100895.31;;;14.19;98.34
73558;BME280;61829;53.286;10.434;2023-10-13T00:58:58;100892.38;;;14.20;98.48
73558;BME280;61829;53.286;10.434;2023-10-13T01:01:29;100892.38;;;14.20;98.73
73558;BME280;61829;53.286;10.434;2023-10-13T01:03:58;100880.50;;;14.21;98.69
73558;BME280;61829;53.286;10.434;2023-10-13T01:06:31;100878.22;;;14.25;98.47
73558;BME280;61829;53.286;10.434;2023-10-13T01:09:01;100871.97;;;14.24;98.74
73558;BME280;61829;53.286;10.434;2023-10-13T01:11:45;100874.44;;;14.26;98.64
73558;BME280;61829;53.286;10.434;2023-10-13T01:14:15;100874.44;;;14.26;98.97
73558;BME280;61829;53.286;10.434;2023-10-13T01:16:45;100873.00;;;14.30;98.93
73558;BME280;61829;53.286;10.434;2023-10-13T01:19:16;100872.16;;;14.29;99.14
73558;BME280;61829;53.286;10.434;2023-10-13T01:21:53;100866.53;;;14.31;99.13
73558;BME280;61829;53.286;10.434;2023-10-13T01:24:29;100862.78;;;14.32;99.34
73558;BME280;61829;53.286;10.434;2023-10-13T01:26:57;100856.94;;;14.35;99.32
73558;BME280;61829;53.286;10.434;2023-10-13T01:29:29;100853.19;;;14.36;99.22
73558;BME280;61829;53.286;10.434;2023-10-13T01:31:57;100847.78;;;14.36;99.65
73558;BME280;61829;53.286;10.434;2023-10-13T01:34:23;100848.19;;;14.40;99.56
73558;BME280;61829;53.286;10.434;2023-10-13T01:36:54;100845.03;;;14.43;99.30
73558;BME280;61829;53.286;10.434;2023-10-13T01:39:22;100840.69;;;14.42;99.44
73558;BME280;61829;53.286;10.434;2023-10-13T01:41:53;100834.19;;;14.43;99.44
73558;BME280;61829;53.286;10.434;2023-10-13T01:44:22;100840.25;;;14.45;99.87
73558;BME280;61829;53.286;10.434;2023-10-13T01:46:49;100837.13;;;14.48;99.80
73558;BME280;61829;53.286;10.434;2023-10-13T01:49:16;100829.00;;;14.48;99.72
73558;BME280;61829;53.286;10.434;2023-10-13T01:51:42;100827.94;;;14.49;99.79
73558;BME280;61829;53.286;10.434;2023-10-13T01:54:09;100825.69;;;14.52;99.70
73558;BME280;61829;53.286;10.434;2023-10-13T01:56:39;100818.78;;;14.50;99.91
73558;BME280;61829;53.286;10.434;2023-10-13T01:59:10;100818.53;;;14.51;100.00
73558;BME280;61829;53.286;10.434;2023-10-13T02:01:37;100818.78;;;14.56;100.00
73558;BME280;61829;53.286;10.434;2023-10-13T02:04:04;100813.16;;;14.58;100.00
73558;BME280;61829;53.286;10.434;2023-10-13T02:06:31;100814.81;;;14.59;99.90
73558;BME280;61829;53.286;10.434;2023-10-13T02:09:06;100798.53;;;14.59;100.00
73558;BME280;61829;53.286;10.434;2023-10-13T02:11:43;100793.75;;;14.61;100.00
73558;BME280;61829;53.286;10.434;2023-10-13T02:14:11;100797.28;;;14.62;100.00
73558;BME280;61829;53.286;10.434;2023-10-13T02:16:41;100789.97;;;14.62;100.00
73558;BME280;61829;53.286;10.434;2023-10-13T02:19:07;100790.63;;;14.64;100.00
73558;BME280;61829;53.286;10.434;2023-10-13T02:21:41;100786.84;;;14.65;100.00
73558;BME280;61829;53.286;10.434;2023-10-13T02:24:09;100774.34;;;14.64;100.00
73558;BME280;61829;53.286;10.434;2023-10-13T02:26:41;100781.41;;;14.65;100.00
73558;BME280;61829;53.286;10.434;2023-10-13T02:29:09;100774.75;;;14.68;100.00
73558;BME280;61829;53.286;10.434;2023-10-13T02:31:42;100776.41;;;14.69;100.00
73558;BME280;61829;53.286;10.434;2023-10-13T02:34:09;100779.72;;;14.71;100.00
73558;BME280;61829;53.286;10.434;2023-10-13T02:36:38;100776.19;;;14.70;100.00
73558;BME280;61829;53.286;10.434;2023-10-13T02:39:26;100763.47;;;14.71;100.00
73558;BME280;61829;53.286;10.434;2023-10-13T02:41:54;100759.69;;;14.72;100.00
73558;BME280;61829;53.286;10.434;2023-10-13T02:44:21;100758.44;;;14.74;100.00
73558;BME280;61829;53.286;10.434;2023-10-13T02:46:57;100752.41;;;14.72;100.00
73558;BME280;61829;53.286;10.434;2023-10-13T02:49:27;100750.09;;;14.76;100.00
73558;BME280;61829;53.286;10.434;2023-10-13T02:51:57;100744.44;;;14.77;100.00
73558;BME280;61829;53.286;10.434;2023-10-13T02:54:25;100742.34;;;14.79;100.00
73558;BME280;61829;53.286;10.434;2023-10-13T02:56:57;100735.91;;;14.80;100.00
73558;BME280;61829;53.286;10.434;2023-10-13T02:59:25;100742.22;;;14.61;100.00
73558;BME280;61829;53.286;10.434;2023-10-13T03:02:07;100739.72;;;14.59;100.00
73558;BME280;61829;53.286;10.434;2023-10-13T03:04:57;100735.13;;;14.60;100.00
73558;BME280;61829;53.286;10.434;2023-10-13T03:07:36;100728.22;;;14.64;100.00
73558;BME280;61829;53.286;10.434;2023-10-13T03:10:04;100728.22;;;14.64;100.00
73558;BME280;61829;53.286;10.434;2023-10-13T03:12:37;100717.97;;;14.66;100.00
73558;BME280;61829;53.286;10.434;2023-10-13T03:15:06;100711.28;;;14.69;100.00
73558;BME280;61829;53.286;10.434;2023-10-13T03:17:46;100710.88;;;14.72;100.00
73558;BME280;61829;53.286;10.434;2023-10-13T03:20:16;100717.97;;;14.73;100.00
73558;BME280;61829;53.286;10.434;2023-10-13T03:22:46;100703.16;;;14.75;100.00
73558;BME280;61829;53.286;10.434;2023-10-13T03:25:13;100697.28;;;14.78;100.00
73558;BME280;61829;53.286;10.434;2023-10-13T03:27:50;100696.22;;;14.79;100.00
73558;BME280;61829;53.286;10.434;2023-10-13T03:30:16;100687.59;;;14.96;100.00
73558;BME280;61829;53.286;10.434;2023-10-13T03:32:43;100679.66;;;15.01;100.00
73558;BME280;61829;53.286;10.434;2023-10-13T03:35:12;100683.22;;;14.95;100.00
73558;BME280;61829;53.286;10.434;2023-10-13T03:37:51;100677.19;;;14.93;100.00
73558;BME280;61829;53.286;10.434;2023-10-13T03:40:17;100675.09;;;14.95;100.00
73558;BME280;61829;53.286;10.434;2023-10-13T03:45:38;100672.31;;;15.01;100.00
73558;BME280;61829;53.286;10.434;2023-10-13T03:50:53;100660.66;;;15.01;100.00
73558;BME280;61829;53.286;10.434;2023-10-13T03:53:35;100653.97;;;15.03;100.00
73558;BME280;61829;53.286;10.434;2023-10-13T03:56:03;100652.06;;;15.04;100.00
73558;BME280;61829;53.286;10.434;2023-10-13T03:58:41;100654.34;;;15.07;100.00
73558;BME280;61829;53.286;10.434;2023-10-13T04:01:14;100654.09;;;15.09;100.00
73558;BME280;61829;53.286;10.434;2023-10-13T04:03:43;100640.53;;;15.09;100.00
73558;BME280;61829;53.286;10.434;2023-10-13T04:06:35;100642.84;;;15.12;100.00
73558;BME280;61829;53.286;10.434;2023-10-13T04:09:17;100636.13;;;15.14;100.00
73558;BME280;61829;53.286;10.434;2023-10-13T04:12:05;100631.31;;;15.16;100.00
73558;BME280;61829;53.286;10.434;2023-10-13T04:14:44;100631.09;;;15.18;100.00
73558;BME280;61829;53.286;10.434;2023-10-13T04:17:28;100636.91;;;15.21;100.00
73558;BME280;61829;53.286;10.434;2023-10-13T04:19:56;100625.97;;;15.35;100.00
73558;BME280;61829;53.286;10.434;2023-10-13T04:25:26;100631.66;;;15.52;100.00
73558;BME280;61829;53.286;10.434;2023-10-13T04:28:06;100628.50;;;15.55;100.00
73558;BME280;61829;53.286;10.434;2023-10-13T04:33:31;100627.59;;;15.61;100.00
73558;BME280;61829;53.286;10.434;2023-10-13T04:36:17;100622.19;;;15.61;100.00
73558;BME280;61829;53.286;10.434;2023-10-13T04:39:02;100608.44;;;15.56;100.00
73558;BME280;61829;53.286;10.434;2023-10-13T04:41:38;100610.53;;;15.54;100.00
73558;BME280;61829;53.286;10.434;2023-10-13T04:44:12;100602.16;;;15.55;100.00
73558;BME280;61829;53.286;10.434;2023-10-13T04:46:57;100596.28;;;15.58;100.00
73558;BME280;61829;53.286;10.434;2023-10-13T04:49:27;100601.28;;;15.61;100.00
73558;BME280;61829;53.286;10.434;2023-10-13T04:52:12;100586.41;;;15.64;100.00
73558;BME280;61829;53.286;10.434;2023-10-13T04:54:44;100582.81;;;15.70;100.00
73558;BME280;61829;53.286;10.434;2023-10-13T04:57:12;100581.63;;;15.84;100.00
73558;BME280;61829;53.286;10.434;2023-10-13T04:59:56;100576.13;;;15.91;100.00
73558;BME280;61829;53.286;10.434;2023-10-13T05:02:41;100563.53;;;15.97;100.00
73558;BME280;61829;53.286;10.434;2023-10-13T05:05:14;100561.19;;;16.00;100.00
73558;BME280;61829;53.286;10.434;2023-10-13T05:07:41;100561.56;;;16.04;100.00
73558;BME280;61829;53.286;10.434;2023-10-13T05:10:25;100555.44;;;16.08;100.00
73558;BME280;61829;53.286;10.434;2023-10-13T05:13:10;100552.25;;;16.11;100.00
73558;BME280;61829;53.286;10.434;2023-10-13T05:15:55;100537.38;;;16.14;100.00
73558;BME280;61829;53.286;10.434;2023-10-13T05:18:39;100532.94;;;16.20;100.00
73558;BME280;61829;53.286;10.434;2023-10-13T05:21:24;100540.63;;;16.23;100.00
73558;BME280;61829;53.286;10.434;2023-10-13T05:24:09;100534.94;;;16.24;100.00
73558;BME280;61829;53.286;10.434;2023-10-13T05:26:53;100527.16;;;16.28;100.00
73558;BME280;61829;53.286;10.434;2023-10-13T05:29:42;100525.63;;;16.32;100.00
73558;BME280;61829;53.286;10.434;2023-10-13T05:32:27;100520.81;;;16.34;100.00
73558;BME280;61829;53.286;10.434;2023-10-13T05:35:22;100523.06;;;16.37;100.00
73558;BME280;61829;53.286;10.434;2023-10-13T05:38:06;100517.97;;;16.41;100.00
73558;BME280;61829;53.286;10.434;2023-10-13T05:40:58;100515.06;;;16.42;100.00
73558;BME280;61829;53.286;10.434;2023-10-13T05:43:43;100510.19;;;16.44;100.00
73558;BME280;61829;53.286;10.434;2023-10-13T05:46:28;100505.34;;;16.46;100.00
73558;BME280;61829;53.286;10.434;2023-10-13T05:49:04;100505.34;;;16.46;100.00
73558;BME280;61829;53.286;10.434;2023-10-13T05:51:38;100510.94;;;16.51;100.00
73558;BME280;61829;53.286;10.434;2023-10-13T05:54:04;100506.91;;;16.54;100.00
73558;BME280;61829;53.286;10.434;2023-10-13T05:56:40;100501.00;;;16.57;100.00
73558;BME280;61829;53.286;10.434;2023-10-13T05:59:26;100504.91;;;16.61;100.00
73558;BME280;61829;53.286;10.434;2023-10-13T06:02:11;100510.13;;;16.63;100.00
73558;BME280;61829;53.286;10.434;2023-10-13T06:04:56;100500.91;;;16.64;100.00
73558;BME280;61829;53.286;10.434;2023-10-13T06:07:41;100497.13;;;16.65;100.00
73558;BME280;61829;53.286;10.434;2023-10-13T06:10:44;100497.50;;;16.68;100.00
73558;BME280;61829;53.286;10.434;2023-10-13T06:13:29;100497.84;;;16.72;100.00
73558;BME280;61829;53.286;10.434;2023-10-13T06:16:15;100497.03;;;16.71;100.00
73558;BME280;61829;53.286;10.434;2023-10-13T06:19:01;100496.19;;;16.71;100.00
73558;BME280;61829;53.286;10.434;2023-10-13T06:21:45;100497.84;;;16.72;100.00
73558;BME280;61829;53.286;10.434;2023-10-13T06:24:30;100498.44;;;16.74;100.00
73558;BME280;61829;53.286;10.434;2023-10-13T06:27:16;100498.00;;;16.77;100.00
73558;BME280;61829;53.286;10.434;2023-10-13T06:30:04;100490.44;;;16.79;100.00
73558;BME280;61829;53.286;10.434;2023-10-13T06:32:30;100495.44;;;16.82;100.00
73558;BME280;61829;53.286;10.434;2023-10-13T06:34:58;100484.28;;;16.83;100.00
73558;BME280;61829;53.286;10.434;2023-10-13T06:37:25;100487.00;;;16.83;100.00
73558;BME280;61829;53.286;10.434;2023-10-13T06:40:01;100482.16;;;16.86;100.00
73558;BME280;61829;53.286;10.434;2023-10-13T06:42:48;100472.94;;;16.87;100.00
73558;BME280;61829;53.286;10.434;2023-10-13T06:45:14;100480.06;;;16.88;100.00
73558;BME280;61829;53.286;10.434;2023-10-13T06:47:45;100479.78;;;16.89;100.00
73558;BME280;61829;53.286;10.434;2023-10-13T06:50:18;100477.44;;;16.93;100.00
73558;BME280;61829;53.286;10.434;2023-10-13T06:52:50;100466.53;;;16.93;100.00
73558;BME280;61829;53.286;10.434;2023-10-13T06:55:23;100470.69;;;16.95;100.00
73558;BME280;61829;53.286;10.434;2023-10-13T06:58:06;100473.41;;;16.95;100.00
73558;BME280;61829;53.286;10.434;2023-10-13T07:00:40;100474.00;;;16.97;100.00
73558;BME280;61829;53.286;10.434;2023-10-13T07:03:06;100470.22;;;16.98;100.00
73558;BME280;61829;53.286;10.434;2023-10-13T07:05:38;100469.16;;;16.99;100.00
73558;BME280;61829;53.286;10.434;2023-10-13T07:08:05;100463.25;;;17.02;100.00
73558;BME280;61829;53.286;10.434;2023-10-13T07:10:32;100457.81;;;17.02;100.00
73558;BME280;61829;53.286;10.434;2023-10-13T07:13:11;100456.72;;;17.03;100.00
73558;BME280;61829;53.286;10.434;2023-10-13T07:15:40;100454.81;;;17.04;100.00
73558;BME280;61829;53.286;10.434;2023-10-13T07:18:14;100455.44;;;17.06;100.00
73558;BME280;61829;53.286;10.434;2023-10-13T07:20:48;100454.13;;;17.09;100.00
73558;BME280;61829;53.286;10.434;2023-10-13T07:23:14;100457.44;;;17.11;100.00
73558;BME280;61829;53.286;10.434;2023-10-13T07:25:54;100454.25;;;17.14;100.00
73558;BME280;61829;53.286;10.434;2023-10-13T07:28:21;100437.91;;;17.14;100.00
73558;BME280;61829;53.286;10.434;2023-10-13T07:30:48;100442.28;;;17.15;100.00
73558;BME280;61829;53.286;10.434;2023-10-13T07:33:34;100437.66;;;17.15;100.00
73558;BME280;61829;53.286;10.434;2023-10-13T07:36:02;100430.91;;;17.18;100.00
73558;BME280;61829;53.286;10.434;2023-10-13T07:38:53;100413.53;;;17.19;100.00
73558;BME280;61829;53.286;10.434;2023-10-13T07:41:38;100417.06;;;17.19;100.00
73558;BME280;61829;53.286;10.434;2023-10-13T07:44:07;100414.34;;;17.19;100.00
73558;BME280;61829;53.286;10.434;2023-10-13T07:46:33;100414.09;;;17.21;100.00
73558;BME280;61829;53.286;10.434;2023-10-13T07:49:03;100388.19;;;17.18;100.00
73558;BME280;61829;53.286;10.434;2023-10-13T07:51:37;100389.34;;;17.22;100.00
73558;BME280;61829;53.286;10.434;2023-10-13T07:54:10;100382.00;;;17.23;100.00
73558;BME280;61829;53.286;10.434;2023-10-13T07:56:39;100366.16;;;17.20;100.00
73558;BME280;61829;53.286;10.434;2023-10-13T07:59:05;100370.53;;;17.21;100.00
73558;BME280;61829;53.286;10.434;2023-10-13T08:01:34;100361.66;;;17.25;100.00
73558;BME280;61829;53.286;10.434;2023-10-13T08:04:00;100358.09;;;17.25;100.00
73558;BME280;61829;53.286;10.434;2023-10-13T08:06:48;100334.19;;;17.27;100.00
73558;BME280;61829;53.286;10.434;2023-10-13T08:09:14;100332.03;;;17.29;100.00
73558;BME280;61829;53.286;10.434;2023-10-13T08:12:07;100332.63;;;17.31;100.00
73558;BME280;61829;53.286;10.434;2023-10-13T08:14:38;100326.25;;;17.25;100.00
73558;BME280;61829;53.286;10.434;2023-10-13T08:17:07;100325.66;;;17.23;100.00
73558;BME280;61829;53.286;10.434;2023-10-13T08:19:35;100324.13;;;17.27;100.00
73558;BME280;61829;53.286;10.434;2023-10-13T08:22:27;100312.41;;;17.27;100.00
73558;BME280;61829;53.286;10.434;2023-10-13T08:25:01;100307.19;;;17.25;100.00
73558;BME280;61829;53.286;10.434;2023-10-13T08:27:46;100306.34;;;17.25;100.00
73558;BME280;61829;53.286;10.434;2023-10-13T08:30:31;100300.66;;;17.26;100.00
73558;BME280;61829;53.286;10.434;2023-10-13T08:33:09;100296.28;;;17.25;100.00
73558;BME280;61829;53.286;10.434;2023-10-13T08:35:44;100302.00;;;17.24;100.00
73558;BME280;61829;53.286;10.434;2023-10-13T08:38:29;100295.47;;;17.25;100.00
73558;BME280;61829;53.286;10.434;2023-10-13T08:40:58;100292.16;;;17.23;100.00
73558;BME280;61829;53.286;10.434;2023-10-13T08:43:43;100293.22;;;17.22;100.00
73558;BME280;61829;53.286;10.434;2023-10-13T08:46:16;100290.50;;;17.22;100.00
73558;BME280;61829;53.286;10.434;2023-10-13T08:48:57;100288.28;;;17.19;100.00
73558;BME280;61829;53.286;10.434;2023-10-13T08:51:41;100279.50;;;17.17;100.00
73558;BME280;61829;53.286;10.434;2023-10-13T08:54:17;100270.53;;;17.16;100.00
73558;BME280;61829;53.286;10.434;2023-10-13T08:57:02;100272.41;;;17.16;100.00
73558;BME280;61829;53.286;10.434;2023-10-13T08:59:59;100276.19;;;17.15;100.00
73558;BME280;61829;53.286;10.434;2023-10-13T09:02:45;100278.34;;;17.13;100.00
73558;BME280;61829;53.286;10.434;2023-10-13T09:05:47;100269.09;;;17.14;100.00
73558;BME280;61829;53.286;10.434;2023-10-13T09:08:29;100277.59;;;17.17;100.00
73558;BME280;61829;53.286;10.434;2023-10-13T09:11:04;100270.25;;;17.18;100.00
73558;BME280;61829;53.286;10.434;2023-10-13T09:13:40;100280.91;;;17.19;100.00
73558;BME280;61829;53.286;10.434;2023-10-13T09:16:13;100282.34;;;17.22;100.00
73558;BME280;61829;53.286;10.434;2023-10-13T09:19:08;100284.09;;;17.28;100.00
73558;BME280;61829;53.286;10.434;2023-10-13T09:21:38;100292.09;;;17.35;100.00
73558;BME280;61829;53.286;10.434;2023-10-13T09:24:14;100301.47;;;17.39;100.00
73558;BME280;61829;53.286;10.434;2023-10-13T09:26:48;100298.47;;;17.40;100.00
73558;BME280;61829;53.286;10.434;2023-10-13T09:29:19;100305.81;;;17.40;100.00
73558;BME280;61829;53.286;10.434;2023-10-13T09:31:59;100309.97;;;17.42;100.00
73558;BME280;61829;53.286;10.434;2023-10-13T09:34:26;100309.56;;;17.50;100.00
73558;BME280;61829;53.286;10.434;2023-10-13T09:37:00;100296.06;;;17.56;100.00
73558;BME280;61829;53.286;10.434;2023-10-13T09:39:28;100274.25;;;17.56;100.00
73558;BME280;61829;53.286;10.434;2023-10-13T09:42:27;100280.47;;;17.68;100.00
73558;BME280;61829;53.286;10.434;2023-10-13T09:44:53;100268.34;;;17.76;100.00
73558;BME280;61829;53.286;10.434;2023-10-13T09:47:25;100272.56;;;17.83;100.00
73558;BME280;61829;53.286;10.434;2023-10-13T09:49:59;100270.34;;;17.97;100.00
73558;BME280;61829;53.286;10.434;2023-10-13T09:52:32;100263.75;;;18.10;100.00
73558;BME280;61829;53.286;10.434;2023-10-13T09:57:42;100258.03;;;18.28;100.00
73558;BME280;61829;53.286;10.434;2023-10-13T10:00:17;100269.53;;;18.30;100.00
73558;BME280;61829;53.286;10.434;2023-10-13T10:03:06;100257.78;;;18.30;100.00
73558;BME280;61829;53.286;10.434;2023-10-13T10:05:42;100240.59;;;18.29;100.00
73558;BME280;61829;53.286;10.434;2023-10-13T10:08:25;100245.28;;;18.34;100.00
73558;BME280;61829;53.286;10.434;2023-10-13T10:11:11;100235.22;;;18.34;100.00
73558;BME280;61829;53.286;10.434;2023-10-13T10:16:11;100224.13;;;18.41;100.00
73558;BME280;61829;53.286;10.434;2023-10-13T10:18:41;100223.03;;;18.42;100.00
73558;BME280;61829;53.286;10.434;2023-10-13T10:21:08;100213.28;;;18.46;100.00
73558;BME280;61829;53.286;10.434;2023-10-13T10:23:37;100216.03;;;18.46;100.00
73558;BME280;61829;53.286;10.434;2023-10-13T10:26:12;100211.97;;;18.49;100.00
73558;BME280;61829;53.286;10.434;2023-10-13T10:28:46;100219.06;;;18.50;100.00
73558;BME280;61829;53.286;10.434;2023-10-13T10:31:12;100200.28;;;18.53;100.00
73558;BME280;61829;53.286;10.434;2023-10-13T10:33:58;100197.84;;;18.57;100.00
73558;BME280;61829;53.286;10.434;2023-10-13T10:36:30;100191.41;;;18.63;100.00
73558;BME280;61829;53.286;10.434;2023-10-13T10:38:57;100182.78;;;18.71;100.00
73558;BME280;61829;53.286;10.434;2023-10-13T10:41:30;100186.22;;;18.83;100.00
73558;BME280;61829;53.286;10.434;2023-10-13T10:44:13;100175.41;;;18.94;100.00
73558;BME280;61829;53.286;10.434;2023-10-13T10:46:49;100171.97;;;19.03;100.00
73558;BME280;61829;53.286;10.434;2023-10-13T10:49:25;100157.84;;;19.12;100.00
73558;BME280;61829;53.286;10.434;2023-10-13T10:51:59;100148.09;;;19.21;100.00
73558;BME280;61829;53.286;10.434;2023-10-13T10:54:30;100147.41;;;19.31;100.00
73558;BME280;61829;53.286;10.434;2023-10-13T10:57:00;100132.72;;;19.42;100.00
73558;BME280;61829;53.286;10.434;2023-10-13T10:59:44;100136.91;;;19.55;99.87
73558;BME280;61829;53.286;10.434;2023-10-13T11:02:11;100111.63;;;19.69;99.20
73558;BME280;61829;53.286;10.434;2023-10-13T11:04:53;100105.19;;;19.86;99.14
73558;BME280;61829;53.286;10.434;2023-10-13T11:07:22;100100.03;;;19.94;97.31
73558;BME280;61829;53.286;10.434;2023-10-13T11:09:49;100097.06;;;20.01;96.69
73558;BME280;61829;53.286;10.434;2023-10-13T11:12:19;100090.56;;;20.07;96.19
73558;BME280;61829;53.286;10.434;2023-10-13T11:14:48;100084.00;;;20.13;95.96
73558;BME280;61829;53.286;10.434;2023-10-13T11:17:20;100094.13;;;20.13;95.55
73558;BME280;61829;53.286;10.434;2023-10-13T11:19:52;100079.91;;;20.11;94.93
73558;BME280;61829;53.286;10.434;2023-10-13T11:22:20;100070.88;;;20.15;94.91
73558;BME280;61829;53.286;10.434;2023-10-13T11:25:04;100066.25;;;20.21;94.55
73558;BME280;61829;53.286;10.434;2023-10-13T11:27:41;100067.63;;;20.24;94.06
73558;BME280;61829;53.286;10.434;2023-10-13T11:30:18;100059.97;;;20.26;94.81
73558;BME280;61829;53.286;10.434;2023-10-13T11:33:13;100053.19;;;20.38;94.12
73558;BME280;61829;53.286;10.434;2023-10-13T11:35:44;100059.19;;;20.40;93.91
73558;BME280;61829;53.286;10.434;2023-10-13T11:38:28;100049.69;;;20.53;93.71
73558;BME280;61829;53.286;10.434;2023-10-13T11:41:17;100043.13;;;20.59;93.25
73558;BME280;61829;53.286;10.434;2023-10-13T11:43:49;100041.25;;;20.70;92.63
73558;BME280;61829;53.286;10.434;2023-10-13T11:46:18;100051.13;;;20.81;92.66
73558;BME280;61829;53.286;10.434;2023-10-13T11:49:10;100037.72;;;20.90;91.35
73558;BME280;61829;53.286;10.434;2023-10-13T11:51:42;100038.25;;;20.97;91.04
73558;BME280;61829;53.286;10.434;2023-10-13T11:54:23;100019.63;;;20.94;88.21
73558;BME280;61829;53.286;10.434;2023-10-13T11:56:49;99997.44;;;20.96;87.57
73558;BME280;61829;53.286;10.434;2023-10-13T11:59:15;99994.41;;;21.02;87.41
73558;BME280;61829;53.286;10.434;2023-10-13T12:01:55;99987.28;;;21.12;87.34
73558;BME280;61829;53.286;10.434;2023-10-13T12:04:37;99975.78;;;21.20;86.52
73558;BME280;61829;53.286;10.434;2023-10-13T12:07:10;99976.06;;;21.23;86.42
73558;BME280;61829;53.286;10.434;2023-10-13T12:09:48;99966.72;;;21.19;86.85
73558;BME280;61829;53.286;10.434;2023-10-13T12:12:34;99979.31;;;21.25;87.09
73558;BME280;61829;53.286;10.434;2023-10-13T12:15:16;99978.78;;;21.28;86.74
73558;BME280;61829;53.286;10.434;2023-10-13T12:18:05;99983.72;;;21.32;86.28
73558;BME280;61829;53.286;10.434;2023-10-13T12:20:31;99979.88;;;21.33;86.30
73558;BME280;61829;53.286;10.434;2023-10-13T12:23:01;99976.88;;;21.39;86.35
73558;BME280;61829;53.286;10.434;2023-10-13T12:25:41;99983.44;;;21.43;85.90
73558;BME280;61829;53.286;10.434;2023-10-13T12:28:26;99971.91;;;21.51;85.77
73558;BME280;61829;53.286;10.434;2023-10-13T12:30:55;99966.38;;;21.62;85.22
73558;BME280;61829;53.286;10.434;2023-10-13T12:33:25;99965.81;;;21.75;85.01
73558;BME280;61829;53.286;10.434;2023-10-13T12:35:57;99950.94;;;21.86;84.41
73558;BME280;61829;53.286;10.434;2023-10-13T12:38:35;99964.34;;;21.88;82.71
73558;BME280;61829;53.286;10.434;2023-10-13T12:44:00;99954.72;;;21.95;82.51
73558;BME280;61829;53.286;10.434;2023-10-13T12:46:45;99961.81;;;22.02;82.68
73558;BME280;61829;53.286;10.434;2023-10-13T12:49:29;99952.78;;;22.01;82.09
73558;BME280;61829;53.286;10.434;2023-10-13T12:52:08;99957.13;;;22.07;82.28
73558;BME280;61829;53.286;10.434;2023-10-13T12:54:46;99949.94;;;22.16;81.16
73558;BME280;61829;53.286;10.434;2023-10-13T12:57:27;99955.75;;;22.20;81.07
73558;BME280;61829;53.286;10.434;2023-10-13T12:59:54;99965.03;;;22.24;81.44
73558;BME280;61829;53.286;10.434;2023-10-13T13:02:24;99953.50;;;22.22;80.74
73558;BME280;61829;53.286;10.434;2023-10-13T13:04:52;99953.50;;;22.22;80.62
73558;BME280;61829;53.286;10.434;2023-10-13T13:07:23;99944.72;;;22.25;81.24
73558;BME280;61829;53.286;10.434;2023-10-13T13:09:55;99963.09;;;22.25;80.46
73558;BME280;61829;53.286;10.434;2023-10-13T13:12:26;99968.34;;;22.21;79.50
73558;BME280;61829;53.286;10.434;2023-10-13T13:18:41;99927.72;;;22.23;79.27
73558;BME280;61829;53.286;10.434;2023-10-13T13:21:09;99932.09;;;22.24;80.08
73558;BME280;61829;53.286;10.434;2023-10-13T13:23:38;99917.31;;;22.20;78.97
73558;BME280;61829;53.286;10.434;2023-10-13T13:26:06;99895.34;;;22.20;79.62
73558;BME280;61829;53.286;10.434;2023-10-13T13:28:45;99887.38;;;22.24;79.67
73558;BME280;61829;53.286;10.434;2023-10-13T13:31:22;99858.56;;;22.16;77.61
73558;BME280;61829;53.286;10.434;2023-10-13T13:33:55;99868.16;;;22.24;77.25
73558;BME280;61829;53.286;10.434;2023-10-13T13:36:21;99864.50;;;22.33;76.53
73558;BME280;61829;53.286;10.434;2023-10-13T13:38:48;99865.00;;;22.40;76.68
73558;BME280;61829;53.286;10.434;2023-10-13T13:41:17;99861.91;;;22.47;76.73